createdAt,value
2023-11-07T00:00:58.077Z,81.59
2023-11-07T00:01:58.038Z,81.48
2023-11-07T00:02:58.190Z,81.79
2023-11-07T00:03:58.167Z,81.69
2023-11-07T00:04:58.743Z,81.90
2023-11-07T00:05:58.078Z,81.79
2023-11-07T00:06:57.998Z,81.69
2023-11-07T00:07:57.982Z,81.79
2023-11-07T00:08:58.005Z,81.90
2023-11-07T00:09:57.966Z,81.79
2023-11-07T00:10:57.948Z,81.90
2023-11-07T00:11:57.943Z,82.10
2023-11-07T00:12:57.968Z,81.90
2023-11-07T00:13:57.883Z,81.90
2023-11-07T00:14:57.943Z,82.00
2023-11-07T00:15:57.863Z,82.20
2023-11-07T00:16:57.853Z,82.10
2023-11-07T00:17:57.942Z,82.00
2023-11-07T00:18:58.001Z,82.00
2023-11-07T00:19:57.926Z,81.69
2023-11-07T00:20:57.868Z,81.69
2023-11-07T00:21:57.778Z,81.90
2023-11-07T00:22:57.790Z,82.20
2023-11-07T00:23:57.784Z,82.31
2023-11-07T00:24:57.746Z,82.41
2023-11-07T00:25:57.730Z,82.20
2023-11-07T00:26:57.752Z,82.10
2023-11-07T00:27:57.707Z,82.31
2023-11-07T00:28:57.760Z,82.31
2023-11-07T00:29:57.717Z,82.10
2023-11-07T00:30:57.700Z,82.10
2023-11-07T00:31:57.665Z,82.31
2023-11-07T00:32:57.780Z,82.51
2023-11-07T00:33:57.704Z,82.41
2023-11-07T00:34:57.604Z,82.71
2023-11-07T00:35:57.615Z,82.82
2023-11-07T00:36:57.597Z,82.71
2023-11-07T00:37:57.591Z,82.71
2023-11-07T00:38:57.590Z,82.62
2023-11-07T00:39:57.556Z,82.62
2023-11-07T00:40:57.610Z,82.82
2023-11-07T00:41:57.555Z,82.62
2023-11-07T00:42:57.513Z,82.41
2023-11-07T00:43:57.496Z,82.51
2023-11-07T00:44:57.537Z,82.51
2023-11-07T00:45:57.449Z,82.31
2023-11-07T00:46:57.456Z,82.14
2023-11-07T00:47:57.550Z,82.10
2023-11-07T00:48:57.596Z,82.24
2023-11-07T00:49:57.421Z,82.34
2023-11-07T00:50:57.461Z,82.45
2023-11-07T00:51:57.402Z,82.55
2023-11-07T00:52:57.362Z,82.45
2023-11-07T00:53:57.379Z,82.62
2023-11-07T00:54:57.366Z,83.17
2023-11-07T00:55:57.345Z,83.13
2023-11-07T00:56:57.370Z,83.03
2023-11-07T00:57:57.301Z,83.13
2023-11-07T00:58:57.306Z,83.44
2023-11-07T00:59:57.286Z,83.44
2023-11-07T01:00:57.272Z,83.64
2023-11-07T01:01:57.267Z,83.64
2023-11-07T01:02:57.333Z,83.44
2023-11-07T01:03:57.360Z,83.75
2023-11-07T01:04:57.219Z,83.95
2023-11-07T01:05:57.272Z,83.85
2023-11-07T01:06:57.240Z,83.54
2023-11-07T01:07:57.166Z,83.23
2023-11-07T01:08:57.159Z,83.64
2023-11-07T01:09:57.176Z,83.85
2023-11-07T01:10:57.150Z,84.05
2023-11-07T01:11:57.161Z,84.26
2023-11-07T01:12:57.100Z,84.56
2023-11-07T01:13:57.097Z,84.26
2023-11-07T01:14:57.123Z,84.42
2023-11-07T01:15:57.065Z,84.63
2023-11-07T01:16:57.061Z,84.42
2023-11-07T01:17:57.128Z,84.53
2023-11-07T01:18:57.115Z,84.42
2023-11-07T01:19:57.029Z,84.53
2023-11-07T01:20:57.053Z,84.32
2023-11-07T01:21:56.986Z,84.42
2023-11-07T01:22:56.980Z,84.42
2023-11-07T01:23:57.007Z,84.42
2023-11-07T01:24:56.969Z,84.53
2023-11-07T01:25:56.942Z,84.53
2023-11-07T01:26:56.957Z,84.28
2023-11-07T01:27:56.912Z,84.28
2023-11-07T01:28:56.922Z,84.28
2023-11-07T01:29:56.901Z,84.49
2023-11-07T01:30:56.894Z,84.49
2023-11-07T01:31:56.876Z,84.39
2023-11-07T01:32:56.913Z,83.87
2023-11-07T01:33:56.970Z,83.87
2023-11-07T01:34:56.815Z,83.87
2023-11-07T01:35:56.847Z,83.87
2023-11-07T01:36:56.792Z,84.28
2023-11-07T01:37:56.784Z,84.18
2023-11-07T01:38:56.780Z,83.98
2023-11-07T01:39:56.736Z,83.87
2023-11-07T01:40:56.748Z,84.08
2023-11-07T01:41:56.760Z,84.08
2023-11-07T01:42:56.741Z,84.08
2023-11-07T01:43:56.691Z,83.36
2023-11-07T01:44:56.733Z,83.46
2023-11-07T01:45:56.652Z,83.83
2023-11-07T01:46:56.664Z,83.83
2023-11-07T01:47:56.682Z,83.83
2023-11-07T01:48:56.847Z,83.73
2023-11-07T01:49:56.603Z,83.63
2023-11-07T01:50:56.647Z,83.42
2023-11-07T01:51:56.606Z,83.94
2023-11-07T01:52:56.576Z,83.73
2023-11-07T01:53:56.590Z,83.94
2023-11-07T01:54:56.556Z,83.63
2023-11-07T01:55:56.533Z,83.63
2023-11-07T01:56:56.531Z,83.73
2023-11-07T01:57:56.515Z,83.32
2023-11-07T01:58:56.508Z,83.42
2023-11-07T01:59:56.510Z,82.77
2023-11-07T02:00:56.492Z,82.67
2023-11-07T02:01:56.468Z,82.77
2023-11-07T02:02:56.503Z,82.77
2023-11-07T02:03:56.535Z,82.67
2023-11-07T02:04:56.442Z,82.87
2023-11-07T02:05:56.428Z,82.77
2023-11-07T02:06:56.394Z,82.77
2023-11-07T02:07:56.378Z,82.77
2023-11-07T02:08:56.413Z,82.36
2023-11-07T02:09:56.334Z,82.56
2023-11-07T02:10:56.355Z,82.56
2023-11-07T02:11:56.342Z,82.46
2023-11-07T02:12:56.341Z,82.56
2023-11-07T02:13:56.296Z,82.56
2023-11-07T02:14:56.358Z,82.56
2023-11-07T02:15:56.288Z,82.36
2023-11-07T02:16:56.286Z,82.46
2023-11-07T02:17:56.724Z,82.36
2023-11-07T02:18:56.278Z,82.67
2023-11-07T02:19:56.213Z,82.36
2023-11-07T02:20:56.247Z,82.15
2023-11-07T02:21:56.190Z,82.15
2023-11-07T02:22:56.201Z,82.15
2023-11-07T02:23:56.230Z,82.12
2023-11-07T02:24:56.166Z,82.32
2023-11-07T02:25:56.132Z,82.01
2023-11-07T02:26:56.142Z,82.01
2023-11-07T02:27:56.111Z,82.01
2023-11-07T02:28:56.117Z,81.91
2023-11-07T02:29:56.129Z,81.91
2023-11-07T02:30:56.093Z,81.81
2023-11-07T02:31:56.058Z,81.81
2023-11-07T02:32:56.161Z,81.40
2023-11-07T02:33:56.126Z,81.29
2023-11-07T02:34:56.008Z,81.20
2023-11-07T02:35:56.020Z,80.99
2023-11-07T02:36:55.991Z,81.40
2023-11-07T02:37:55.978Z,81.50
2023-11-07T02:38:55.992Z,81.20
2023-11-07T02:39:55.938Z,81.29
2023-11-07T02:40:55.934Z,80.88
2023-11-07T02:41:55.940Z,80.88
2023-11-07T02:42:55.932Z,80.78
2023-11-07T02:43:55.921Z,80.99
2023-11-07T02:44:55.885Z,81.20
2023-11-07T02:45:55.875Z,81.20
2023-11-07T02:46:55.844Z,81.20
2023-11-07T02:47:55.970Z,81.20
2023-11-07T02:48:55.941Z,80.88
2023-11-07T02:49:55.820Z,80.88
2023-11-07T02:50:55.807Z,81.20
2023-11-07T02:51:55.804Z,80.99
2023-11-07T02:52:55.797Z,81.23
2023-11-07T02:53:55.802Z,80.82
2023-11-07T02:54:55.750Z,81.13
2023-11-07T02:55:55.737Z,81.43
2023-11-07T02:56:55.781Z,81.54
2023-11-07T02:57:55.725Z,81.13
2023-11-07T02:58:55.698Z,81.23
2023-11-07T02:59:55.729Z,81.23
2023-11-07T03:00:55.648Z,81.54
2023-11-07T03:01:55.667Z,81.43
2023-11-07T03:02:55.705Z,81.54
2023-11-07T03:03:56.216Z,81.54
2023-11-07T03:04:56.072Z,81.74
2023-11-07T03:05:55.679Z,81.85
2023-11-07T03:06:55.629Z,81.85
2023-11-07T03:07:55.602Z,81.64
2023-11-07T03:08:55.613Z,81.64
2023-11-07T03:09:55.534Z,81.95
2023-11-07T03:10:55.547Z,82.05
2023-11-07T03:11:55.620Z,81.95
2023-11-07T03:12:55.516Z,82.15
2023-11-07T03:13:55.480Z,81.85
2023-11-07T03:14:55.544Z,81.95
2023-11-07T03:15:55.477Z,81.74
2023-11-07T03:16:55.445Z,81.95
2023-11-07T03:17:55.489Z,81.85
2023-11-07T03:18:55.559Z,82.05
2023-11-07T03:19:55.409Z,82.05
2023-11-07T03:20:55.458Z,82.15
2023-11-07T03:21:55.408Z,81.95
2023-11-07T03:22:55.370Z,81.95
2023-11-07T03:23:55.400Z,82.15
2023-11-07T03:24:55.385Z,81.95
2023-11-07T03:25:55.339Z,82.05
2023-11-07T03:26:55.342Z,82.36
2023-11-07T03:27:55.299Z,82.15
2023-11-07T03:28:55.308Z,82.05
2023-11-07T03:29:55.321Z,82.26
2023-11-07T03:30:55.267Z,82.26
2023-11-07T03:31:55.246Z,82.26
2023-11-07T03:32:55.303Z,82.26
2023-11-07T03:33:55.302Z,82.15
2023-11-07T03:34:55.232Z,82.22
2023-11-07T03:35:55.254Z,81.91
2023-11-07T03:36:55.204Z,82.01
2023-11-07T03:37:55.177Z,82.12
2023-11-07T03:38:55.180Z,81.71
2023-11-07T03:39:55.131Z,81.71
2023-11-07T03:40:55.122Z,81.40
2023-11-07T03:41:55.141Z,81.40
2023-11-07T03:42:55.104Z,81.60
2023-11-07T03:43:55.108Z,81.50
2023-11-07T03:44:55.090Z,81.95
2023-11-07T03:45:55.117Z,81.64
2023-11-07T03:46:55.044Z,81.43
2023-11-07T03:47:55.188Z,81.64
2023-11-07T03:48:55.187Z,82.15
2023-11-07T03:49:55.018Z,81.95
2023-11-07T03:50:55.065Z,81.95
2023-11-07T03:51:54.972Z,82.36
2023-11-07T03:52:54.981Z,81.74
2023-11-07T03:53:55.174Z,81.85
2023-11-07T03:54:54.943Z,82.15
2023-11-07T03:55:54.966Z,82.26
2023-11-07T03:56:54.930Z,82.36
2023-11-07T03:57:54.936Z,82.15
2023-11-07T03:58:54.889Z,82.36
2023-11-07T03:59:54.898Z,82.46
2023-11-07T04:00:54.854Z,82.56
2023-11-07T04:01:54.850Z,82.46
2023-11-07T04:02:54.939Z,82.67
2023-11-07T04:03:54.913Z,82.87
2023-11-07T04:04:54.816Z,82.56
2023-11-07T04:05:54.917Z,82.56
2023-11-07T04:06:54.785Z,82.67
2023-11-07T04:07:54.756Z,83.28
2023-11-07T04:08:54.775Z,83.07
2023-11-07T04:09:54.746Z,82.97
2023-11-07T04:10:54.710Z,82.87
2023-11-07T04:11:54.736Z,82.67
2023-11-07T04:12:54.699Z,83.39
2023-11-07T04:13:54.685Z,83.28
2023-11-07T04:14:54.676Z,83.39
2023-11-07T04:15:54.682Z,83.18
2023-11-07T04:16:54.663Z,82.87
2023-11-07T04:17:54.846Z,82.97
2023-11-07T04:18:54.886Z,83.69
2023-11-07T04:19:54.600Z,83.80
2023-11-07T04:20:54.619Z,83.59
2023-11-07T04:21:54.581Z,83.80
2023-11-07T04:22:54.553Z,83.73
2023-11-07T04:23:54.579Z,83.63
2023-11-07T04:24:54.548Z,83.12
2023-11-07T04:25:54.536Z,83.12
2023-11-07T04:26:54.600Z,83.49
2023-11-07T04:27:54.496Z,83.28
2023-11-07T04:28:54.486Z,83.49
2023-11-07T04:29:54.520Z,83.28
2023-11-07T04:30:54.611Z,83.59
2023-11-07T04:31:54.458Z,83.49
2023-11-07T04:32:54.496Z,83.28
2023-11-07T04:33:54.483Z,82.97
2023-11-07T04:34:54.398Z,83.18
2023-11-07T04:35:54.455Z,83.59
2023-11-07T04:36:54.384Z,83.80
2023-11-07T04:37:54.360Z,83.59
2023-11-07T04:38:54.402Z,83.28
2023-11-07T04:39:54.342Z,82.97
2023-11-07T04:40:54.324Z,83.18
2023-11-07T04:41:54.363Z,82.97
2023-11-07T04:42:54.287Z,83.07
2023-11-07T04:43:54.298Z,83.18
2023-11-07T04:44:54.309Z,83.49
2023-11-07T04:45:54.286Z,83.69
2023-11-07T04:46:54.235Z,83.39
2023-11-07T04:47:54.364Z,83.28
2023-11-07T04:48:54.371Z,83.59
2023-11-07T04:49:54.222Z,83.32
2023-11-07T04:50:54.222Z,83.42
2023-11-07T04:51:54.167Z,83.49
2023-11-07T04:52:54.161Z,83.39
2023-11-07T04:53:54.213Z,83.59
2023-11-07T04:54:54.130Z,83.59
2023-11-07T04:55:54.132Z,83.53
2023-11-07T04:56:54.124Z,83.53
2023-11-07T04:57:54.098Z,83.32
2023-11-07T04:58:57.528Z,83.32
2023-11-07T04:59:54.089Z,83.73
2023-11-07T05:00:54.069Z,83.69
2023-11-07T05:01:54.316Z,83.73
2023-11-07T05:02:54.097Z,83.83
2023-11-07T05:03:54.093Z,84.04
2023-11-07T05:04:54.964Z,83.83
2023-11-07T05:05:54.084Z,83.69
2023-11-07T05:06:54.034Z,83.39
2023-11-07T05:07:54.000Z,83.69
2023-11-07T05:08:54.449Z,83.69
2023-11-07T05:09:55.567Z,83.49
2023-11-07T05:10:54.847Z,83.39
2023-11-07T05:11:54.758Z,83.18
2023-11-07T05:12:54.843Z,83.18
2023-11-07T05:13:53.898Z,83.49
2023-11-07T05:14:53.926Z,83.59
2023-11-07T05:15:53.908Z,83.80
2023-11-07T05:16:55.252Z,83.80
2023-11-07T05:17:54.007Z,83.59
2023-11-07T05:18:53.918Z,83.69
2023-11-07T05:19:53.803Z,83.59
2023-11-07T05:20:55.860Z,83.80
2023-11-07T05:21:53.798Z,83.59
2023-11-07T05:22:54.127Z,83.59
2023-11-07T05:23:53.802Z,83.69
2023-11-07T05:24:53.802Z,83.90
2023-11-07T05:25:53.754Z,83.59
2023-11-07T05:26:53.744Z,83.28
2023-11-07T05:27:53.700Z,83.49
2023-11-07T05:28:55.831Z,83.69
2023-11-07T05:29:53.714Z,84.00
2023-11-07T05:30:53.678Z,83.94
2023-11-07T05:31:53.650Z,83.59
2023-11-07T05:32:53.709Z,83.53
2023-11-07T05:33:53.738Z,83.73
2023-11-07T05:34:53.630Z,83.63
2023-11-07T05:35:53.644Z,83.73
2023-11-07T05:36:53.575Z,83.63
2023-11-07T05:37:53.583Z,83.73
2023-11-07T05:38:53.663Z,83.63
2023-11-07T05:39:53.627Z,83.63
2023-11-07T05:40:53.556Z,83.32
2023-11-07T05:41:53.600Z,83.01
2023-11-07T05:42:53.518Z,83.01
2023-11-07T05:43:53.502Z,83.42
2023-11-07T05:44:53.520Z,83.87
2023-11-07T05:45:53.489Z,83.87
2023-11-07T05:46:53.451Z,83.98
2023-11-07T05:47:53.591Z,83.67
2023-11-07T05:48:53.670Z,83.67
2023-11-07T05:49:53.408Z,83.87
2023-11-07T05:50:53.483Z,84.18
2023-11-07T05:51:53.403Z,83.98
2023-11-07T05:52:53.371Z,83.87
2023-11-07T05:53:53.377Z,83.98
2023-11-07T05:54:53.330Z,84.59
2023-11-07T05:55:53.337Z,84.49
2023-11-07T05:56:53.371Z,84.49
2023-11-07T05:57:53.320Z,84.04
2023-11-07T05:58:53.293Z,84.04
2023-11-07T05:59:53.314Z,83.83
2023-11-07T06:00:53.287Z,83.73
2023-11-07T06:01:53.244Z,83.94
2023-11-07T06:02:53.281Z,83.73
2023-11-07T06:03:53.270Z,84.14
2023-11-07T06:04:53.194Z,84.25
2023-11-07T06:05:53.362Z,84.04
2023-11-07T06:06:53.190Z,83.73
2023-11-07T06:07:53.180Z,83.63
2023-11-07T06:08:53.148Z,83.53
2023-11-07T06:09:53.141Z,83.73
2023-11-07T06:10:53.126Z,83.83
2023-11-07T06:11:53.142Z,83.83
2023-11-07T06:12:53.102Z,83.94
2023-11-07T06:13:53.094Z,83.83
2023-11-07T06:14:53.106Z,83.73
2023-11-07T06:15:53.128Z,83.83
2023-11-07T06:16:53.043Z,83.63
2023-11-07T06:17:53.086Z,83.83
2023-11-07T06:18:53.051Z,83.94
2023-11-07T06:19:52.992Z,83.83
2023-11-07T06:20:53.015Z,83.94
2023-11-07T06:21:53.001Z,84.14
2023-11-07T06:22:52.972Z,83.94
2023-11-07T06:23:53.001Z,83.83
2023-11-07T06:24:52.917Z,83.53
2023-11-07T06:25:52.939Z,83.73
2023-11-07T06:26:52.933Z,83.83
2023-11-07T06:27:52.910Z,83.73
2023-11-07T06:28:52.881Z,83.63
2023-11-07T06:29:52.951Z,83.53
2023-11-07T06:30:52.880Z,83.53
2023-11-07T06:31:52.851Z,83.42
2023-11-07T06:32:52.950Z,83.42
2023-11-07T06:33:52.898Z,83.53
2023-11-07T06:34:52.809Z,83.53
2023-11-07T06:35:52.908Z,83.42
2023-11-07T06:36:52.786Z,83.42
2023-11-07T06:37:52.759Z,83.63
2023-11-07T06:38:52.766Z,83.42
2023-11-07T06:39:52.757Z,83.22
2023-11-07T06:40:52.708Z,83.53
2023-11-07T06:41:52.723Z,83.73
2023-11-07T06:42:52.693Z,83.73
2023-11-07T06:43:52.679Z,83.63
2023-11-07T06:44:52.686Z,83.42
2023-11-07T06:45:52.637Z,82.91
2023-11-07T06:46:52.832Z,83.12
2023-11-07T06:47:52.806Z,83.22
2023-11-07T06:48:54.210Z,83.01
2023-11-07T06:49:52.613Z,82.87
2023-11-07T06:50:52.603Z,82.77
2023-11-07T06:51:52.587Z,82.77
2023-11-07T06:52:52.569Z,82.67
2023-11-07T06:53:52.566Z,82.56
2023-11-07T06:54:52.518Z,82.56
2023-11-07T06:55:52.509Z,82.46
2023-11-07T06:56:52.546Z,82.77
2023-11-07T06:57:52.487Z,82.77
2023-11-07T06:58:52.488Z,82.67
2023-11-07T06:59:52.498Z,82.67
2023-11-07T07:00:52.440Z,82.97
2023-11-07T07:01:52.427Z,82.77
2023-11-07T07:02:52.500Z,82.56
2023-11-07T07:03:52.512Z,82.56
2023-11-07T07:04:52.408Z,82.36
2023-11-07T07:05:52.552Z,82.32
2023-11-07T07:06:52.381Z,82.12
2023-11-07T07:07:52.370Z,82.12
2023-11-07T07:08:52.389Z,82.01
2023-11-07T07:09:52.332Z,82.12
2023-11-07T07:10:52.328Z,82.22
2023-11-07T07:11:52.348Z,82.22
2023-11-07T07:12:52.381Z,81.91
2023-11-07T07:13:53.804Z,81.81
2023-11-07T07:14:52.303Z,81.71
2023-11-07T07:15:52.238Z,81.40
2023-11-07T07:16:52.262Z,81.20
2023-11-07T07:17:52.327Z,81.09
2023-11-07T07:18:52.520Z,81.09
2023-11-07T07:19:52.193Z,81.05
2023-11-07T07:20:52.213Z,81.15
2023-11-07T07:21:52.178Z,80.95
2023-11-07T07:22:52.191Z,80.85
2023-11-07T07:23:52.168Z,80.85
2023-11-07T07:24:52.147Z,80.85
2023-11-07T07:25:52.127Z,80.95
2023-11-07T07:26:52.204Z,80.74
2023-11-07T07:27:53.515Z,80.64
2023-11-07T07:28:52.131Z,80.44
2023-11-07T07:29:52.055Z,80.23
2023-11-07T07:30:52.052Z,79.99
2023-11-07T07:31:52.057Z,79.89
2023-11-07T07:32:52.734Z,79.68
2023-11-07T07:33:52.050Z,79.48
2023-11-07T07:34:52.924Z,79.48
2023-11-07T07:35:52.062Z,79.48
2023-11-07T07:36:51.982Z,79.38
2023-11-07T07:37:51.938Z,79.38
2023-11-07T07:38:52.033Z,79.17
2023-11-07T07:39:51.920Z,78.83
2023-11-07T07:40:51.928Z,78.63
2023-11-07T07:41:51.926Z,78.72
2023-11-07T07:42:51.909Z,78.52
2023-11-07T07:43:51.877Z,78.52
2023-11-07T07:44:51.892Z,78.59
2023-11-07T07:45:51.847Z,78.28
2023-11-07T07:46:51.840Z,78.38
2023-11-07T07:47:52.179Z,78.17
2023-11-07T07:48:51.918Z,77.73
2023-11-07T07:49:51.812Z,77.42
2023-11-07T07:50:51.809Z,77.42
2023-11-07T07:51:51.780Z,77.32
2023-11-07T07:52:51.754Z,76.91
2023-11-07T07:53:51.855Z,76.78
2023-11-07T07:55:07.054Z,76.67
2023-11-07T07:55:52.812Z,76.47
2023-11-07T07:56:51.730Z,76.26
2023-11-07T07:57:51.690Z,76.12
2023-11-07T07:58:51.708Z,75.82
2023-11-07T07:59:51.683Z,75.82
2023-11-07T08:00:51.663Z,75.92
2023-11-07T08:01:51.639Z,75.48
2023-11-07T08:02:51.762Z,74.66
2023-11-07T08:03:51.661Z,74.63
2023-11-07T08:04:51.582Z,74.11
2023-11-07T08:05:51.616Z,73.43
2023-11-07T08:06:51.576Z,72.69
2023-11-07T08:07:51.543Z,72.45
2023-11-07T08:08:51.568Z,71.63
2023-11-07T08:09:51.530Z,70.92
2023-11-07T08:10:51.526Z,70.92
2023-11-07T08:11:51.525Z,71.02
2023-11-07T08:12:51.524Z,70.58
2023-11-07T08:13:51.470Z,70.34
2023-11-07T08:14:51.488Z,69.40
2023-11-07T08:15:51.833Z,68.79
2023-11-07T08:16:51.444Z,69.29
2023-11-07T08:17:51.494Z,69.90
2023-11-07T08:18:51.486Z,69.43
2023-11-07T08:19:51.406Z,69.23
2023-11-07T08:20:51.732Z,69.84
2023-11-07T08:21:51.388Z,70.28
2023-11-07T08:22:51.379Z,70.48
2023-11-07T08:23:51.392Z,70.48
2023-11-07T08:24:51.333Z,70.48
2023-11-07T08:25:51.316Z,71.09
2023-11-07T08:26:51.370Z,70.21
2023-11-07T08:27:51.288Z,70.41
2023-11-07T08:28:51.268Z,70.21
2023-11-07T08:29:51.290Z,70.17
2023-11-07T08:30:51.236Z,68.95
2023-11-07T08:31:51.228Z,69.67
2023-11-07T08:32:51.306Z,69.67
2023-11-07T08:33:51.332Z,69.26
2023-11-07T08:34:51.194Z,69.53
2023-11-07T08:35:51.264Z,69.53
2023-11-07T08:37:00.288Z,69.43
2023-11-07T08:37:52.178Z,69.43
2023-11-07T08:38:51.134Z,69.09
2023-11-07T08:39:51.119Z,69.43
2023-11-07T08:40:51.128Z,69.12
2023-11-07T08:41:51.176Z,68.99
2023-11-07T08:42:51.116Z,68.48
2023-11-07T08:43:51.068Z,67.80
2023-11-07T08:44:51.108Z,67.27
2023-11-07T08:45:51.078Z,66.72
2023-11-07T08:46:51.046Z,66.52
2023-11-07T08:47:51.095Z,65.68
2023-11-07T08:48:51.061Z,65.55
2023-11-07T08:49:51.018Z,65.34
2023-11-07T08:50:51.007Z,64.61
2023-11-07T08:51:50.987Z,64.17
2023-11-07T08:52:50.987Z,63.12
2023-11-07T08:53:50.992Z,62.49
2023-11-07T08:54:50.971Z,60.46
2023-11-07T08:55:50.910Z,60.33
2023-11-07T08:56:51.240Z,60.63
2023-11-07T08:57:51.260Z,61.21
2023-11-07T08:58:50.897Z,60.91
2023-11-07T08:59:50.860Z,59.16
2023-11-07T09:00:50.848Z,59.72
2023-11-07T09:01:51.169Z,60.66
2023-11-07T09:02:51.121Z,61.21
2023-11-07T09:03:50.858Z,60.17
2023-11-07T09:04:50.808Z,59.11
2023-11-07T09:05:50.830Z,57.54
2023-11-07T09:06:50.794Z,57.01
2023-11-07T09:07:50.759Z,56.37
2023-11-07T09:08:50.806Z,56.77
2023-11-07T09:09:50.728Z,55.87
2023-11-07T09:10:50.721Z,55.46
2023-11-07T09:11:51.898Z,55.74
2023-11-07T09:12:50.697Z,54.30
2023-11-07T09:13:50.699Z,54.58
2023-11-07T09:14:50.677Z,54.08
2023-11-07T09:15:50.633Z,53.34
2023-11-07T09:16:50.645Z,53.92
2023-11-07T09:17:50.682Z,52.42
2023-11-07T09:18:50.765Z,52.09
2023-11-07T09:19:50.600Z,51.49
2023-11-07T09:20:50.613Z,50.98
2023-11-07T09:21:50.612Z,52.09
2023-11-07T09:22:50.595Z,53.40
2023-11-07T09:23:50.598Z,52.97
2023-11-07T09:24:50.529Z,52.17
2023-11-07T09:25:50.512Z,52.47
2023-11-07T09:26:50.543Z,52.55
2023-11-07T09:27:50.481Z,51.84
2023-11-07T09:28:50.482Z,51.74
2023-11-07T09:29:50.468Z,52.32
2023-11-07T09:30:50.454Z,52.22
2023-11-07T09:31:50.448Z,51.92
2023-11-07T09:32:50.567Z,52.49
2023-11-07T09:33:50.520Z,51.49
2023-11-07T09:34:50.408Z,51.59
2023-11-07T09:35:50.426Z,48.68
2023-11-07T09:36:50.383Z,50.01
2023-11-07T09:37:50.363Z,50.13
2023-11-07T09:38:53.122Z,51.54
2023-11-07T09:39:50.354Z,51.24
2023-11-07T09:40:50.367Z,51.44
2023-11-07T09:41:50.319Z,50.76
2023-11-07T09:42:50.332Z,51.16
2023-11-07T09:43:50.314Z,51.97
2023-11-07T09:44:50.311Z,51.18
2023-11-07T09:45:50.289Z,51.31
2023-11-07T09:46:50.235Z,52.64
2023-11-07T09:47:50.404Z,51.54
2023-11-07T09:48:50.274Z,52.39
2023-11-07T09:49:50.196Z,52.62
2023-11-07T09:51:50.161Z,53.42
2023-11-07T09:52:50.168Z,54.71
2023-11-07T09:53:50.170Z,54.08
2023-11-07T09:54:50.195Z,54.28
2023-11-07T09:55:50.107Z,53.75
2023-11-07T09:56:50.175Z,53.75
2023-11-07T09:57:51.299Z,52.92
2023-11-07T09:58:50.083Z,54.00
2023-11-07T09:59:50.079Z,54.38
2023-11-07T10:00:50.087Z,49.45
2023-11-07T10:01:50.066Z,52.06
2023-11-07T10:02:50.186Z,52.47
2023-11-07T10:03:50.160Z,52.69
2023-11-07T10:04:50.092Z,52.80
2023-11-07T10:05:50.053Z,53.52
2023-11-07T10:06:49.960Z,53.14
2023-11-07T10:07:49.928Z,53.07
2023-11-07T10:08:49.974Z,53.38
2023-11-07T10:09:49.936Z,54.91
2023-11-07T10:10:49.965Z,54.13
2023-11-07T10:11:49.979Z,54.03
2023-11-07T10:12:50.795Z,54.53
2023-11-07T10:13:49.875Z,54.86
2023-11-07T10:14:49.875Z,56.17
2023-11-07T10:15:49.853Z,56.48
2023-11-07T10:16:49.828Z,54.48
2023-11-07T10:17:49.924Z,54.81
2023-11-07T10:18:50.547Z,55.32
2023-11-07T10:19:49.817Z,56.35
2023-11-07T10:20:49.792Z,57.09
2023-11-07T10:21:49.771Z,56.98
2023-11-07T10:22:49.762Z,57.62
2023-11-07T10:23:49.741Z,58.12
2023-11-07T10:24:49.713Z,57.75
2023-11-07T10:25:49.706Z,57.95
2023-11-07T10:26:49.726Z,58.45
2023-11-07T10:27:49.698Z,58.18
2023-11-07T10:28:49.658Z,57.67
2023-11-07T10:30:49.758Z,57.60
2023-11-07T10:31:49.641Z,58.51
2023-11-07T10:32:49.729Z,59.12
2023-11-07T10:33:49.664Z,58.28
2023-11-07T10:34:49.589Z,58.58
2023-11-07T10:35:49.604Z,58.15
2023-11-07T10:36:49.559Z,57.34
2023-11-07T10:37:49.542Z,58.33
2023-11-07T10:38:49.636Z,58.23
2023-11-07T10:39:49.522Z,57.72
2023-11-07T10:40:49.519Z,57.29
2023-11-07T10:41:49.532Z,56.88
2023-11-07T10:42:49.485Z,57.18
2023-11-07T10:43:49.454Z,57.16
2023-11-07T10:44:49.965Z,56.65
2023-11-07T10:45:49.457Z,56.35
2023-11-07T10:46:49.437Z,55.72
2023-11-07T10:47:49.446Z,56.52
2023-11-07T10:48:49.497Z,56.23
2023-11-07T10:49:49.413Z,55.90
2023-11-07T10:50:49.400Z,55.49
2023-11-07T10:51:50.733Z,55.39
2023-11-07T10:52:49.355Z,54.38
2023-11-07T10:53:49.379Z,53.78
2023-11-07T10:54:49.324Z,53.50
2023-11-07T10:55:49.350Z,56.12
2023-11-07T10:56:49.298Z,56.15
2023-11-07T10:57:49.275Z,56.56
2023-11-07T10:58:49.285Z,56.56
2023-11-07T10:59:49.331Z,55.94
2023-11-07T11:00:49.253Z,56.85
2023-11-07T11:01:49.238Z,56.68
2023-11-07T11:02:49.263Z,56.27
2023-11-07T11:03:49.271Z,57.39
2023-11-07T11:04:49.186Z,56.91
2023-11-07T11:05:49.265Z,58.23
2023-11-07T11:06:49.221Z,57.11
2023-11-07T11:07:49.206Z,58.45
2023-11-07T11:08:49.203Z,57.54
2023-11-07T11:09:49.142Z,58.76
2023-11-07T11:10:49.094Z,58.18
2023-11-07T11:11:49.138Z,58.89
2023-11-07T11:12:49.078Z,58.38
2023-11-07T11:13:49.092Z,58.71
2023-11-07T11:14:49.069Z,58.61
2023-11-07T11:15:49.043Z,59.55
2023-11-07T11:16:49.029Z,60.16
2023-11-07T11:17:49.136Z,60.46
2023-11-07T11:18:49.142Z,59.78
2023-11-07T11:19:49.128Z,61.20
2023-11-07T11:20:49.004Z,61.20
2023-11-07T11:21:48.972Z,58.49
2023-11-07T11:22:48.952Z,59.70
2023-11-07T11:23:49.010Z,60.42
2023-11-07T11:24:48.986Z,61.02
2023-11-07T11:25:48.921Z,61.43
2023-11-07T11:26:48.908Z,61.33
2023-11-07T11:27:48.916Z,60.52
2023-11-07T11:28:48.862Z,60.65
2023-11-07T11:29:48.869Z,61.05
2023-11-07T11:30:48.836Z,60.85
2023-11-07T11:31:48.860Z,61.76
2023-11-07T11:32:48.920Z,62.27
2023-11-07T11:33:49.084Z,62.37
2023-11-07T11:34:48.891Z,62.51
2023-11-07T11:35:48.808Z,62.20
2023-11-07T11:36:48.766Z,63.01
2023-11-07T11:37:48.793Z,62.30
2023-11-07T11:38:48.766Z,61.99
2023-11-07T11:39:48.737Z,62.91
2023-11-07T11:40:48.690Z,63.34
2023-11-07T11:41:48.730Z,63.95
2023-11-07T11:42:48.677Z,64.15
2023-11-07T11:43:48.691Z,63.55
2023-11-07T11:44:48.650Z,65.07
2023-11-07T11:45:48.651Z,63.85
2023-11-07T11:46:48.637Z,63.65
2023-11-07T11:47:48.636Z,64.15
2023-11-07T11:48:48.769Z,63.28
2023-11-07T11:49:48.579Z,64.39
2023-11-07T11:50:48.636Z,64.29
2023-11-07T11:51:48.586Z,63.48
2023-11-07T11:52:48.530Z,63.58
2023-11-07T11:53:48.554Z,63.60
2023-11-07T11:54:48.516Z,64.22
2023-11-07T11:55:48.517Z,64.22
2023-11-07T11:56:48.498Z,64.32
2023-11-07T11:57:48.475Z,65.13
2023-11-07T11:58:48.487Z,64.52
2023-11-07T11:59:48.462Z,64.83
2023-11-07T12:00:48.475Z,65.13
2023-11-07T12:01:48.509Z,63.91
2023-11-07T12:02:48.436Z,64.32
2023-11-07T12:03:48.506Z,63.94
2023-11-07T12:04:48.390Z,65.67
2023-11-07T12:05:48.426Z,64.35
2023-11-07T12:06:49.237Z,64.15
2023-11-07T12:07:48.391Z,64.45
2023-11-07T12:08:48.363Z,64.55
2023-11-07T12:09:48.363Z,65.26
2023-11-07T12:10:48.284Z,65.36
2023-11-07T12:11:48.313Z,65.36
2023-11-07T12:12:48.283Z,65.60
2023-11-07T12:13:48.293Z,65.09
2023-11-07T12:14:48.275Z,63.97
2023-11-07T12:15:48.237Z,64.69
2023-11-07T12:16:48.227Z,65.60
2023-11-07T12:17:48.326Z,65.70
2023-11-07T12:18:48.454Z,65.80
2023-11-07T12:19:48.193Z,65.50
2023-11-07T12:20:48.194Z,65.70
2023-11-07T12:21:48.159Z,66.11
2023-11-07T12:22:48.220Z,66.31
2023-11-07T12:23:48.147Z,66.00
2023-11-07T12:24:48.116Z,66.21
2023-11-07T12:25:48.098Z,66.00
2023-11-07T12:26:48.117Z,66.52
2023-11-07T12:27:48.097Z,66.21
2023-11-07T12:28:48.085Z,66.72
2023-11-07T12:29:48.131Z,66.21
2023-11-07T12:30:48.037Z,66.31
2023-11-07T12:31:48.016Z,66.11
2023-11-07T12:32:48.112Z,65.91
2023-11-07T12:33:48.144Z,66.11
2023-11-07T12:34:48.033Z,66.21
2023-11-07T12:35:48.040Z,65.60
2023-11-07T12:36:47.945Z,65.94
2023-11-07T12:37:47.950Z,65.94
2023-11-07T12:38:47.952Z,66.04
2023-11-07T12:39:47.942Z,65.73
2023-11-07T12:40:47.921Z,66.14
2023-11-07T12:41:47.941Z,65.80
2023-11-07T12:42:47.872Z,66.31
2023-11-07T12:43:47.928Z,64.99
2023-11-07T12:44:47.883Z,65.33
2023-11-07T12:45:47.840Z,65.70
2023-11-07T12:46:47.849Z,65.91
2023-11-07T12:47:47.901Z,66.21
2023-11-07T12:48:47.959Z,65.80
2023-11-07T12:49:47.795Z,65.91
2023-11-07T12:50:47.976Z,65.60
2023-11-07T12:51:47.836Z,65.97
2023-11-07T12:52:47.734Z,65.77
2023-11-07T12:53:47.746Z,65.97
2023-11-07T12:54:47.726Z,65.77